sensor_id;sensor_type;location;lat;lon;timestamp;temperature;humidity
62363;DHT22;48396;48.426;1.500;2022-09-17T00:00:46;18.10;58.70
62363;DHT22;48396;48.426;1.500;2022-09-17T00:03:13;18.10;58.80
62363;DHT22;48396;48.426;1.500;2022-09-17T00:05:38;18.10;59.00
62363;DHT22;48396;48.426;1.500;2022-09-17T00:08:04;18.00;59.00
62363;DHT22;48396;48.426;1.500;2022-09-17T00:10:31;18.00;59.00
62363;DHT22;48396;48.426;1.500;2022-09-17T00:12:57;18.00;59.00
62363;DHT22;48396;48.426;1.500;2022-09-17T00:15:23;18.00;59.10
62363;DHT22;48396;48.426;1.500;2022-09-17T00:17:52;17.90;59.00
62363;DHT22;48396;48.426;1.500;2022-09-17T00:20:18;17.90;59.10
62363;DHT22;48396;48.426;1.500;2022-09-17T00:22:44;17.90;59.10
62363;DHT22;48396;48.426;1.500;2022-09-17T00:25:09;17.90;59.70
62363;DHT22;48396;48.426;1.500;2022-09-17T00:27:35;17.90;59.30
62363;DHT22;48396;48.426;1.500;2022-09-17T00:30:01;17.90;59.40
62363;DHT22;48396;48.426;1.500;2022-09-17T00:32:26;17.80;59.40
62363;DHT22;48396;48.426;1.500;2022-09-17T00:34:52;17.80;59.40
62363;DHT22;48396;48.426;1.500;2022-09-17T00:37:18;17.80;59.50
62363;DHT22;48396;48.426;1.500;2022-09-17T00:39:44;17.80;59.70
62363;DHT22;48396;48.426;1.500;2022-09-17T00:42:11;17.70;59.60
62363;DHT22;48396;48.426;1.500;2022-09-17T00:44:45;17.70;59.70
62363;DHT22;48396;48.426;1.500;2022-09-17T00:47:30;17.70;59.80
62363;DHT22;48396;48.426;1.500;2022-09-17T00:50:13;17.70;59.80
62363;DHT22;48396;48.426;1.500;2022-09-17T00:52:43;17.60;59.80
62363;DHT22;48396;48.426;1.500;2022-09-17T00:55:15;17.60;60.00
62363;DHT22;48396;48.426;1.500;2022-09-17T00:57:42;17.60;60.00
62363;DHT22;48396;48.426;1.500;2022-09-17T01:00:11;17.50;60.10
62363;DHT22;48396;48.426;1.500;2022-09-17T01:02:37;17.50;60.20
62363;DHT22;48396;48.426;1.500;2022-09-17T01:05:03;17.50;60.20
62363;DHT22;48396;48.426;1.500;2022-09-17T01:13:11;17.40;60.50
62363;DHT22;48396;48.426;1.500;2022-09-17T01:15:43;17.40;60.50
62363;DHT22;48396;48.426;1.500;2022-09-17T01:23:45;17.40;60.70
62363;DHT22;48396;48.426;1.500;2022-09-17T01:26:24;17.30;60.70
62363;DHT22;48396;48.426;1.500;2022-09-17T01:31:36;17.30;60.60
62363;DHT22;48396;48.426;1.500;2022-09-17T01:42:03;17.30;60.80
62363;DHT22;48396;48.426;1.500;2022-09-17T01:44:34;17.20;60.60
62363;DHT22;48396;48.426;1.500;2022-09-17T01:47:12;17.20;60.70
62363;DHT22;48396;48.426;1.500;2022-09-17T01:49:43;17.20;60.80
62363;DHT22;48396;48.426;1.500;2022-09-17T01:52:09;17.20;60.80
62363;DHT22;48396;48.426;1.500;2022-09-17T01:54:38;17.10;60.70
62363;DHT22;48396;48.426;1.500;2022-09-17T01:59:56;17.10;60.80
62363;DHT22;48396;48.426;1.500;2022-09-17T02:02:31;17.00;60.90
62363;DHT22;48396;48.426;1.500;2022-09-17T02:04:59;17.00;60.90
62363;DHT22;48396;48.426;1.500;2022-09-17T02:07:25;17.00;60.90
62363;DHT22;48396;48.426;1.500;2022-09-17T02:09:57;17.00;61.30
62363;DHT22;48396;48.426;1.500;2022-09-17T02:12:27;16.90;60.90
62363;DHT22;48396;48.426;1.500;2022-09-17T02:14:53;17.00;61.10
62363;DHT22;48396;48.426;1.500;2022-09-17T02:19:47;16.90;61.00
62363;DHT22;48396;48.426;1.500;2022-09-17T02:30:16;16.80;61.20
62363;DHT22;48396;48.426;1.500;2022-09-17T02:32:42;16.80;61.20
62363;DHT22;48396;48.426;1.500;2022-09-17T02:35:08;16.80;61.20
62363;DHT22;48396;48.426;1.500;2022-09-17T02:37:34;16.80;61.30
62363;DHT22;48396;48.426;1.500;2022-09-17T02:40:00;16.80;61.20
62363;DHT22;48396;48.426;1.500;2022-09-17T02:45:05;16.80;61.30
62363;DHT22;48396;48.426;1.500;2022-09-17T02:53:10;16.70;61.50
62363;DHT22;48396;48.426;1.500;2022-09-17T02:58:09;16.70;61.50
62363;DHT22;48396;48.426;1.500;2022-09-17T03:00:38;16.70;61.60
62363;DHT22;48396;48.426;1.500;2022-09-17T03:03:09;16.70;61.60
62363;DHT22;48396;48.426;1.500;2022-09-17T03:05:36;16.70;61.60
62363;DHT22;48396;48.426;1.500;2022-09-17T03:08:02;16.60;61.70
62363;DHT22;48396;48.426;1.500;2022-09-17T03:10:29;16.60;61.70
62363;DHT22;48396;48.426;1.500;2022-09-17T03:12:57;16.60;61.80
62363;DHT22;48396;48.426;1.500;2022-09-17T03:15:23;16.60;61.90
62363;DHT22;48396;48.426;1.500;2022-09-17T03:17:49;16.60;61.90
62363;DHT22;48396;48.426;1.500;2022-09-17T03:20:15;16.50;61.90
62363;DHT22;48396;48.426;1.500;2022-09-17T03:22:41;16.50;62.00
62363;DHT22;48396;48.426;1.500;2022-09-17T03:25:07;16.50;62.20
62363;DHT22;48396;48.426;1.500;2022-09-17T03:27:32;16.50;62.10
62363;DHT22;48396;48.426;1.500;2022-09-17T03:29:58;16.40;62.20
62363;DHT22;48396;48.426;1.500;2022-09-17T03:32:24;16.40;62.30
62363;DHT22;48396;48.426;1.500;2022-09-17T03:34:49;16.40;62.40
62363;DHT22;48396;48.426;1.500;2022-09-17T03:37:15;16.30;62.40
62363;DHT22;48396;48.426;1.500;2022-09-17T03:39:41;16.30;62.60
62363;DHT22;48396;48.426;1.500;2022-09-17T03:42:06;16.30;62.50
62363;DHT22;48396;48.426;1.500;2022-09-17T03:44:32;16.30;62.60
62363;DHT22;48396;48.426;1.500;2022-09-17T03:46:58;16.30;62.50
62363;DHT22;48396;48.426;1.500;2022-09-17T03:49:23;16.30;62.70
62363;DHT22;48396;48.426;1.500;2022-09-17T03:51:49;16.30;62.60
62363;DHT22;48396;48.426;1.500;2022-09-17T03:54:15;16.30;62.70
62363;DHT22;48396;48.426;1.500;2022-09-17T03:56:41;16.30;62.70
62363;DHT22;48396;48.426;1.500;2022-09-17T03:59:07;16.30;62.80
62363;DHT22;48396;48.426;1.500;2022-09-17T04:01:33;16.20;62.80
62363;DHT22;48396;48.426;1.500;2022-09-17T04:03:58;16.20;62.80
62363;DHT22;48396;48.426;1.500;2022-09-17T04:06:24;16.20;62.80
62363;DHT22;48396;48.426;1.500;2022-09-17T04:08:49;16.20;62.90
62363;DHT22;48396;48.426;1.500;2022-09-17T04:11:15;16.20;62.90
62363;DHT22;48396;48.426;1.500;2022-09-17T04:13:41;16.20;63.00
62363;DHT22;48396;48.426;1.500;2022-09-17T04:16:06;16.20;62.90
62363;DHT22;48396;48.426;1.500;2022-09-17T04:18:32;16.20;62.80
62363;DHT22;48396;48.426;1.500;2022-09-17T04:20:58;16.20;62.80
62363;DHT22;48396;48.426;1.500;2022-09-17T04:23:23;16.10;62.80
62363;DHT22;48396;48.426;1.500;2022-09-17T04:25:49;16.20;62.80
62363;DHT22;48396;48.426;1.500;2022-09-17T04:28:15;16.10;62.80
62363;DHT22;48396;48.426;1.500;2022-09-17T04:30:40;16.20;62.80
62363;DHT22;48396;48.426;1.500;2022-09-17T04:33:08;16.10;62.80
62363;DHT22;48396;48.426;1.500;2022-09-17T04:35:33;16.10;62.80
62363;DHT22;48396;48.426;1.500;2022-09-17T04:37:59;16.10;62.90
62363;DHT22;48396;48.426;1.500;2022-09-17T04:40:25;16.00;63.10
62363;DHT22;48396;48.426;1.500;2022-09-17T04:42:52;16.00;63.10
62363;DHT22;48396;48.426;1.500;2022-09-17T04:45:18;16.00;63.20
62363;DHT22;48396;48.426;1.500;2022-09-17T04:47:44;15.90;63.40
62363;DHT22;48396;48.426;1.500;2022-09-17T04:50:09;15.90;63.20
62363;DHT22;48396;48.426;1.500;2022-09-17T04:52:35;15.90;63.20
62363;DHT22;48396;48.426;1.500;2022-09-17T04:55:01;16.00;63.20
62363;DHT22;48396;48.426;1.500;2022-09-17T04:57:26;15.90;63.20
62363;DHT22;48396;48.426;1.500;2022-09-17T04:59:52;16.00;63.20
62363;DHT22;48396;48.426;1.500;2022-09-17T05:02:17;15.90;63.20
62363;DHT22;48396;48.426;1.500;2022-09-17T05:04:43;15.90;63.30
62363;DHT22;48396;48.426;1.500;2022-09-17T05:07:09;15.90;63.30
62363;DHT22;48396;48.426;1.500;2022-09-17T05:09:34;15.90;63.30
62363;DHT22;48396;48.426;1.500;2022-09-17T05:12:00;15.90;63.40
62363;DHT22;48396;48.426;1.500;2022-09-17T05:14:26;15.90;63.30
62363;DHT22;48396;48.426;1.500;2022-09-17T05:16:52;15.90;63.30
62363;DHT22;48396;48.426;1.500;2022-09-17T05:19:17;15.90;63.40
62363;DHT22;48396;48.426;1.500;2022-09-17T05:21:43;15.90;63.30
62363;DHT22;48396;48.426;1.500;2022-09-17T05:24:08;15.90;63.20
62363;DHT22;48396;48.426;1.500;2022-09-17T05:26:34;15.90;63.20
62363;DHT22;48396;48.426;1.500;2022-09-17T05:29:00;15.90;63.20
62363;DHT22;48396;48.426;1.500;2022-09-17T05:31:25;15.90;63.20
62363;DHT22;48396;48.426;1.500;2022-09-17T05:33:51;15.80;63.20
62363;DHT22;48396;48.426;1.500;2022-09-17T05:36:16;15.80;63.20
62363;DHT22;48396;48.426;1.500;2022-09-17T05:38:42;15.80;63.20
62363;DHT22;48396;48.426;1.500;2022-09-17T05:41:08;15.80;63.20
62363;DHT22;48396;48.426;1.500;2022-09-17T05:43:33;15.70;63.10
62363;DHT22;48396;48.426;1.500;2022-09-17T05:46:00;15.70;63.20
62363;DHT22;48396;48.426;1.500;2022-09-17T05:48:25;15.70;63.20
62363;DHT22;48396;48.426;1.500;2022-09-17T05:50:52;15.70;63.20
62363;DHT22;48396;48.426;1.500;2022-09-17T05:53:19;15.70;63.20
62363;DHT22;48396;48.426;1.500;2022-09-17T05:55:45;15.70;63.20
62363;DHT22;48396;48.426;1.500;2022-09-17T05:58:11;15.70;63.20
62363;DHT22;48396;48.426;1.500;2022-09-17T06:00:37;15.70;63.20
62363;DHT22;48396;48.426;1.500;2022-09-17T06:03:03;15.70;63.20
62363;DHT22;48396;48.426;1.500;2022-09-17T06:05:29;15.70;63.10
62363;DHT22;48396;48.426;1.500;2022-09-17T06:07:55;15.70;63.10
62363;DHT22;48396;48.426;1.500;2022-09-17T06:10:20;15.70;63.10
62363;DHT22;48396;48.426;1.500;2022-09-17T06:12:46;15.70;63.00
62363;DHT22;48396;48.426;1.500;2022-09-17T06:15:11;15.70;63.00
62363;DHT22;48396;48.426;1.500;2022-09-17T06:17:39;15.70;63.00
62363;DHT22;48396;48.426;1.500;2022-09-17T06:20:05;15.60;62.90
62363;DHT22;48396;48.426;1.500;2022-09-17T06:22:30;15.60;63.00
62363;DHT22;48396;48.426;1.500;2022-09-17T06:24:57;15.60;63.00
62363;DHT22;48396;48.426;1.500;2022-09-17T06:27:34;15.60;62.90
62363;DHT22;48396;48.426;1.500;2022-09-17T06:30:00;15.60;62.80
62363;DHT22;48396;48.426;1.500;2022-09-17T06:32:26;15.60;62.90
62363;DHT22;48396;48.426;1.500;2022-09-17T06:34:52;15.60;62.80
62363;DHT22;48396;48.426;1.500;2022-09-17T06:37:20;15.60;62.80
62363;DHT22;48396;48.426;1.500;2022-09-17T06:39:45;15.60;62.80
62363;DHT22;48396;48.426;1.500;2022-09-17T06:42:11;15.60;62.90
62363;DHT22;48396;48.426;1.500;2022-09-17T06:44:37;15.50;63.50
62363;DHT22;48396;48.426;1.500;2022-09-17T06:47:03;15.60;62.90
62363;DHT22;48396;48.426;1.500;2022-09-17T06:49:28;15.60;62.80
62363;DHT22;48396;48.426;1.500;2022-09-17T06:51:55;15.70;62.70
62363;DHT22;48396;48.426;1.500;2022-09-17T06:54:21;15.70;62.70
62363;DHT22;48396;48.426;1.500;2022-09-17T06:56:46;15.70;62.60
62363;DHT22;48396;48.426;1.500;2022-09-17T06:59:12;15.70;62.50
62363;DHT22;48396;48.426;1.500;2022-09-17T07:01:38;15.80;62.50
62363;DHT22;48396;48.426;1.500;2022-09-17T07:04:03;15.70;62.50
62363;DHT22;48396;48.426;1.500;2022-09-17T07:06:29;15.70;62.60
62363;DHT22;48396;48.426;1.500;2022-09-17T07:08:55;15.80;62.60
62363;DHT22;48396;48.426;1.500;2022-09-17T07:11:20;15.90;62.50
62363;DHT22;48396;48.426;1.500;2022-09-17T07:13:46;15.90;62.40
62363;DHT22;48396;48.426;1.500;2022-09-17T07:16:11;16.00;62.40
62363;DHT22;48396;48.426;1.500;2022-09-17T07:18:37;16.00;62.30
62363;DHT22;48396;48.426;1.500;2022-09-17T07:21:04;16.10;62.90
62363;DHT22;48396;48.426;1.500;2022-09-17T07:23:32;16.10;62.20
62363;DHT22;48396;48.426;1.500;2022-09-17T07:25:59;16.10;62.20
62363;DHT22;48396;48.426;1.500;2022-09-17T07:28:25;16.10;62.10
62363;DHT22;48396;48.426;1.500;2022-09-17T07:30:51;16.20;62.10
62363;DHT22;48396;48.426;1.500;2022-09-17T07:33:18;16.30;62.00
62363;DHT22;48396;48.426;1.500;2022-09-17T07:35:57;16.30;61.90
62363;DHT22;48396;48.426;1.500;2022-09-17T07:38:23;16.40;61.90
62363;DHT22;48396;48.426;1.500;2022-09-17T07:40:54;16.40;61.80
62363;DHT22;48396;48.426;1.500;2022-09-17T07:43:20;16.40;61.70
62363;DHT22;48396;48.426;1.500;2022-09-17T07:45:45;16.50;61.70
62363;DHT22;48396;48.426;1.500;2022-09-17T07:48:11;16.50;61.60
62363;DHT22;48396;48.426;1.500;2022-09-17T07:50:36;16.50;61.60
62363;DHT22;48396;48.426;1.500;2022-09-17T07:53:02;16.60;61.50
62363;DHT22;48396;48.426;1.500;2022-09-17T07:55:28;16.60;61.30
62363;DHT22;48396;48.426;1.500;2022-09-17T07:57:54;16.50;60.20
62363;DHT22;48396;48.426;1.500;2022-09-17T08:00:20;16.60;61.00
62363;DHT22;48396;48.426;1.500;2022-09-17T08:02:51;16.60;60.90
62363;DHT22;48396;48.426;1.500;2022-09-17T08:05:16;16.70;60.90
62363;DHT22;48396;48.426;1.500;2022-09-17T08:07:42;16.70;60.00
62363;DHT22;48396;48.426;1.500;2022-09-17T08:10:08;16.70;60.20
62363;DHT22;48396;48.426;1.500;2022-09-17T08:12:33;16.70;60.20
62363;DHT22;48396;48.426;1.500;2022-09-17T08:14:59;16.60;60.60
62363;DHT22;48396;48.426;1.500;2022-09-17T08:17:24;16.70;60.40
62363;DHT22;48396;48.426;1.500;2022-09-17T08:19:50;16.80;60.20
62363;DHT22;48396;48.426;1.500;2022-09-17T08:22:16;16.90;60.30
62363;DHT22;48396;48.426;1.500;2022-09-17T08:24:41;16.90;60.00
62363;DHT22;48396;48.426;1.500;2022-09-17T08:27:07;17.00;60.20
62363;DHT22;48396;48.426;1.500;2022-09-17T08:29:32;17.00;59.40
62363;DHT22;48396;48.426;1.500;2022-09-17T08:31:58;16.90;59.80
62363;DHT22;48396;48.426;1.500;2022-09-17T08:34:24;17.00;59.80
62363;DHT22;48396;48.426;1.500;2022-09-17T08:36:49;17.10;59.70
62363;DHT22;48396;48.426;1.500;2022-09-17T08:39:15;17.10;59.50
62363;DHT22;48396;48.426;1.500;2022-09-17T08:41:50;17.10;59.10
62363;DHT22;48396;48.426;1.500;2022-09-17T08:44:22;17.20;58.80
62363;DHT22;48396;48.426;1.500;2022-09-17T08:46:49;17.20;59.00
62363;DHT22;48396;48.426;1.500;2022-09-17T08:54:29;17.30;58.90
62363;DHT22;48396;48.426;1.500;2022-09-17T08:57:10;17.20;58.80
62363;DHT22;48396;48.426;1.500;2022-09-17T08:59:42;17.30;58.00
62363;DHT22;48396;48.426;1.500;2022-09-17T09:07:23;17.40;57.70
62363;DHT22;48396;48.426;1.500;2022-09-17T09:12:28;17.40;57.80
62363;DHT22;48396;48.426;1.500;2022-09-17T09:14:57;17.40;57.70
62363;DHT22;48396;48.426;1.500;2022-09-17T09:17:27;17.50;57.10
62363;DHT22;48396;48.426;1.500;2022-09-17T09:19:53;17.50;57.00
62363;DHT22;48396;48.426;1.500;2022-09-17T09:22:33;17.50;56.90
62363;DHT22;48396;48.426;1.500;2022-09-17T09:25:08;17.60;56.90
62363;DHT22;48396;48.426;1.500;2022-09-17T09:27:45;17.60;56.10
62363;DHT22;48396;48.426;1.500;2022-09-17T09:30:13;17.60;56.20
62363;DHT22;48396;48.426;1.500;2022-09-17T09:35:19;17.70;55.30
62363;DHT22;48396;48.426;1.500;2022-09-17T09:42:59;17.80;54.40
62363;DHT22;48396;48.426;1.500;2022-09-17T09:50:46;17.90;54.90
62363;DHT22;48396;48.426;1.500;2022-09-17T09:55:56;18.00;54.90
62363;DHT22;48396;48.426;1.500;2022-09-17T09:58:27;18.10;55.00
62363;DHT22;48396;48.426;1.500;2022-09-17T10:00:55;18.10;54.60
62363;DHT22;48396;48.426;1.500;2022-09-17T10:03:22;18.20;54.80
62363;DHT22;48396;48.426;1.500;2022-09-17T10:11:21;18.10;53.60
62363;DHT22;48396;48.426;1.500;2022-09-17T10:13:48;18.20;54.10
62363;DHT22;48396;48.426;1.500;2022-09-17T10:16:18;18.30;54.40
62363;DHT22;48396;48.426;1.500;2022-09-17T10:18:45;18.30;54.30
62363;DHT22;48396;48.426;1.500;2022-09-17T10:22:16;18.30;54.10
62363;DHT22;48396;48.426;1.500;2022-09-17T10:24:00;18.40;53.90
62363;DHT22;48396;48.426;1.500;2022-09-17T10:26:31;18.40;53.80
62363;DHT22;48396;48.426;1.500;2022-09-17T10:28:57;18.40;54.10
62363;DHT22;48396;48.426;1.500;2022-09-17T10:31:24;18.50;54.20
62363;DHT22;48396;48.426;1.500;2022-09-17T10:33:57;18.50;53.60
62363;DHT22;48396;48.426;1.500;2022-09-17T10:36:56;18.50;53.00
62363;DHT22;48396;48.426;1.500;2022-09-17T10:42:03;18.50;53.10
62363;DHT22;48396;48.426;1.500;2022-09-17T10:44:30;18.40;53.30
62363;DHT22;48396;48.426;1.500;2022-09-17T10:47:03;18.50;53.80
62363;DHT22;48396;48.426;1.500;2022-09-17T10:49:40;18.50;53.20
62363;DHT22;48396;48.426;1.500;2022-09-17T10:52:10;18.40;53.30
62363;DHT22;48396;48.426;1.500;2022-09-17T10:54:49;18.40;53.20
62363;DHT22;48396;48.426;1.500;2022-09-17T10:57:24;18.40;53.20
62363;DHT22;48396;48.426;1.500;2022-09-17T11:04:50;18.60;53.70
62363;DHT22;48396;48.426;1.500;2022-09-17T11:20:28;18.80;51.50
62363;DHT22;48396;48.426;1.500;2022-09-17T11:28:13;18.90;52.20
62363;DHT22;48396;48.426;1.500;2022-09-17T11:30:48;19.00;52.30
62363;DHT22;48396;48.426;1.500;2022-09-17T11:36:08;19.10;52.50
62363;DHT22;48396;48.426;1.500;2022-09-17T11:38:38;19.10;51.80
62363;DHT22;48396;48.426;1.500;2022-09-17T11:43:46;19.20;50.90
62363;DHT22;48396;48.426;1.500;2022-09-17T11:46:36;19.20;51.30
62363;DHT22;48396;48.426;1.500;2022-09-17T11:52:05;19.30;51.90
62363;DHT22;48396;48.426;1.500;2022-09-17T11:57:04;19.40;51.70
62363;DHT22;48396;48.426;1.500;2022-09-17T11:59:36;19.40;51.30
62363;DHT22;48396;48.426;1.500;2022-09-17T12:02:09;19.50;51.00
62363;DHT22;48396;48.426;1.500;2022-09-17T12:09:59;19.50;50.10
62363;DHT22;48396;48.426;1.500;2022-09-17T12:12:27;19.30;50.70
62363;DHT22;48396;48.426;1.500;2022-09-17T12:15:14;19.30;51.10
62363;DHT22;48396;48.426;1.500;2022-09-17T12:17:41;19.30;50.50
62363;DHT22;48396;48.426;1.500;2022-09-17T12:20:13;19.40;50.90
62363;DHT22;48396;48.426;1.500;2022-09-17T12:22:43;19.30;49.70
62363;DHT22;48396;48.426;1.500;2022-09-17T12:25:11;19.30;50.10
62363;DHT22;48396;48.426;1.500;2022-09-17T12:30:21;19.50;50.60
62363;DHT22;48396;48.426;1.500;2022-09-17T12:38:06;19.60;49.90
62363;DHT22;48396;48.426;1.500;2022-09-17T12:48:41;19.70;48.50
62363;DHT22;48396;48.426;1.500;2022-09-17T12:51:22;19.80;49.10
62363;DHT22;48396;48.426;1.500;2022-09-17T12:53:54;19.80;48.70
62363;DHT22;48396;48.426;1.500;2022-09-17T12:59:09;19.80;49.00
62363;DHT22;48396;48.426;1.500;2022-09-17T13:11:48;20.10;48.80
62363;DHT22;48396;48.426;1.500;2022-09-17T13:14:24;20.20;49.20
62363;DHT22;48396;48.426;1.500;2022-09-17T13:16:59;20.20;49.10
62363;DHT22;48396;48.426;1.500;2022-09-17T13:19:40;20.20;48.80
62363;DHT22;48396;48.426;1.500;2022-09-17T13:22:18;20.20;48.80
62363;DHT22;48396;48.426;1.500;2022-09-17T13:24:45;20.30;49.10
62363;DHT22;48396;48.426;1.500;2022-09-17T13:27:20;20.40;49.00
62363;DHT22;48396;48.426;1.500;2022-09-17T13:32:53;20.60;48.10
62363;DHT22;48396;48.426;1.500;2022-09-17T13:37:34;20.70;47.90
62363;DHT22;48396;48.426;1.500;2022-09-17T13:40:02;20.70;48.10
62363;DHT22;48396;48.426;1.500;2022-09-17T13:42:41;20.80;47.70
62363;DHT22;48396;48.426;1.500;2022-09-17T13:45:09;20.80;47.30
62363;DHT22;48396;48.426;1.500;2022-09-17T13:50:05;20.90;46.40
62363;DHT22;48396;48.426;1.500;2022-09-17T13:55:00;20.90;47.00
62363;DHT22;48396;48.426;1.500;2022-09-17T13:57:27;21.00;46.60
62363;DHT22;48396;48.426;1.500;2022-09-17T13:59:55;21.10;47.10
62363;DHT22;48396;48.426;1.500;2022-09-17T14:04:55;21.20;45.80
62363;DHT22;48396;48.426;1.500;2022-09-17T14:07:46;21.00;45.50
62363;DHT22;48396;48.426;1.500;2022-09-17T14:18:03;21.20;46.00
62363;DHT22;48396;48.426;1.500;2022-09-17T14:20:47;21.20;45.10
62363;DHT22;48396;48.426;1.500;2022-09-17T14:23:13;21.20;46.20
62363;DHT22;48396;48.426;1.500;2022-09-17T14:25:41;21.20;44.80
62363;DHT22;48396;48.426;1.500;2022-09-17T14:28:12;21.20;45.20
62363;DHT22;48396;48.426;1.500;2022-09-17T14:30:41;21.40;45.90
62363;DHT22;48396;48.426;1.500;2022-09-17T14:33:26;21.50;46.10
62363;DHT22;48396;48.426;1.500;2022-09-17T14:36:17;21.50;44.80
62363;DHT22;48396;48.426;1.500;2022-09-17T14:38:41;21.50;44.80
62363;DHT22;48396;48.426;1.500;2022-09-17T14:46:11;21.60;44.80
62363;DHT22;48396;48.426;1.500;2022-09-17T14:48:38;21.70;44.70
62363;DHT22;48396;48.426;1.500;2022-09-17T14:51:17;21.60;43.50
62363;DHT22;48396;48.426;1.500;2022-09-17T14:53:47;21.60;44.00
62363;DHT22;48396;48.426;1.500;2022-09-17T14:56:17;21.70;43.90
62363;DHT22;48396;48.426;1.500;2022-09-17T14:58:50;21.70;43.90
62363;DHT22;48396;48.426;1.500;2022-09-17T15:01:24;21.70;43.70
62363;DHT22;48396;48.426;1.500;2022-09-17T15:03:49;21.60;43.40
62363;DHT22;48396;48.426;1.500;2022-09-17T15:06:32;21.80;44.30
62363;DHT22;48396;48.426;1.500;2022-09-17T15:08:57;21.90;44.10
62363;DHT22;48396;48.426;1.500;2022-09-17T15:11:25;21.90;44.10
62363;DHT22;48396;48.426;1.500;2022-09-17T15:13:51;22.00;44.00
62363;DHT22;48396;48.426;1.500;2022-09-17T15:18:47;22.00;43.40
62363;DHT22;48396;48.426;1.500;2022-09-17T15:21:16;21.90;43.50
62363;DHT22;48396;48.426;1.500;2022-09-17T15:23:43;22.00;44.10
62363;DHT22;48396;48.426;1.500;2022-09-17T15:26:10;22.20;43.50
62363;DHT22;48396;48.426;1.500;2022-09-17T15:28:38;22.30;43.20
62363;DHT22;48396;48.426;1.500;2022-09-17T15:31:08;22.40;42.90
62363;DHT22;48396;48.426;1.500;2022-09-17T15:33:36;22.50;42.80
62363;DHT22;48396;48.426;1.500;2022-09-17T15:38:35;22.60;42.60
62363;DHT22;48396;48.426;1.500;2022-09-17T15:43:45;22.60;42.40
62363;DHT22;48396;48.426;1.500;2022-09-17T15:46:24;22.50;42.00
62363;DHT22;48396;48.426;1.500;2022-09-17T15:48:54;22.60;42.50
62363;DHT22;48396;48.426;1.500;2022-09-17T15:51:27;22.70;42.50
62363;DHT22;48396;48.426;1.500;2022-09-17T15:53:55;22.80;42.40
62363;DHT22;48396;48.426;1.500;2022-09-17T15:56:22;22.90;42.00
62363;DHT22;48396;48.426;1.500;2022-09-17T16:08:43;22.80;41.90
62363;DHT22;48396;48.426;1.500;2022-09-17T16:11:15;22.90;42.20
62363;DHT22;48396;48.426;1.500;2022-09-17T16:13:41;23.00;42.20
62363;DHT22;48396;48.426;1.500;2022-09-17T16:16:08;23.00;42.20
62363;DHT22;48396;48.426;1.500;2022-09-17T16:18:38;23.10;42.30
62363;DHT22;48396;48.426;1.500;2022-09-17T16:21:04;23.20;42.30
62363;DHT22;48396;48.426;1.500;2022-09-17T16:23:29;23.30;41.10
62363;DHT22;48396;48.426;1.500;2022-09-17T16:25:55;23.40;41.50
62363;DHT22;48396;48.426;1.500;2022-09-17T16:28:23;23.40;41.30
62363;DHT22;48396;48.426;1.500;2022-09-17T16:30:48;23.40;41.50
62363;DHT22;48396;48.426;1.500;2022-09-17T16:33:15;23.50;41.40
62363;DHT22;48396;48.426;1.500;2022-09-17T16:35:41;23.60;41.80
62363;DHT22;48396;48.426;1.500;2022-09-17T16:38:07;23.70;41.70
62363;DHT22;48396;48.426;1.500;2022-09-17T16:40:33;23.80;41.50
62363;DHT22;48396;48.426;1.500;2022-09-17T16:43:00;23.80;41.60
62363;DHT22;48396;48.426;1.500;2022-09-17T16:45:26;23.80;41.30
62363;DHT22;48396;48.426;1.500;2022-09-17T16:47:52;23.70;41.00
62363;DHT22;48396;48.426;1.500;2022-09-17T16:50:17;23.70;41.20
62363;DHT22;48396;48.426;1.500;2022-09-17T16:52:44;23.70;40.60
62363;DHT22;48396;48.426;1.500;2022-09-17T16:55:10;23.60;40.50
62363;DHT22;48396;48.426;1.500;2022-09-17T16:57:36;23.60;41.00
62363;DHT22;48396;48.426;1.500;2022-09-17T17:00:03;23.60;41.00
62363;DHT22;48396;48.426;1.500;2022-09-17T17:02:29;23.70;41.20
62363;DHT22;48396;48.426;1.500;2022-09-17T17:04:55;23.80;41.20
62363;DHT22;48396;48.426;1.500;2022-09-17T17:07:21;23.80;40.30
62363;DHT22;48396;48.426;1.500;2022-09-17T17:09:47;23.90;40.70
62363;DHT22;48396;48.426;1.500;2022-09-17T17:12:13;23.90;40.00
62363;DHT22;48396;48.426;1.500;2022-09-17T17:14:38;23.90;40.10
62363;DHT22;48396;48.426;1.500;2022-09-17T17:17:04;24.00;40.50
62363;DHT22;48396;48.426;1.500;2022-09-17T17:19:29;24.10;40.70
62363;DHT22;48396;48.426;1.500;2022-09-17T17:21:55;24.20;40.30
62363;DHT22;48396;48.426;1.500;2022-09-17T17:24:21;24.30;40.40
62363;DHT22;48396;48.426;1.500;2022-09-17T17:26:47;24.50;40.10
62363;DHT22;48396;48.426;1.500;2022-09-17T17:29:12;24.50;40.10
62363;DHT22;48396;48.426;1.500;2022-09-17T17:31:38;24.50;40.20
62363;DHT22;48396;48.426;1.500;2022-09-17T17:34:04;24.60;39.70
62363;DHT22;48396;48.426;1.500;2022-09-17T17:36:30;24.60;40.40
62363;DHT22;48396;48.426;1.500;2022-09-17T17:38:56;24.70;40.40
62363;DHT22;48396;48.426;1.500;2022-09-17T17:41:22;24.60;40.00
62363;DHT22;48396;48.426;1.500;2022-09-17T17:43:54;24.60;40.20
62363;DHT22;48396;48.426;1.500;2022-09-17T17:46:20;24.40;40.30
62363;DHT22;48396;48.426;1.500;2022-09-17T17:48:46;24.20;40.30
62363;DHT22;48396;48.426;1.500;2022-09-17T17:51:11;24.00;40.20
62363;DHT22;48396;48.426;1.500;2022-09-17T17:53:40;23.80;40.60
62363;DHT22;48396;48.426;1.500;2022-09-17T17:56:06;23.60;40.70
62363;DHT22;48396;48.426;1.500;2022-09-17T17:58:33;23.40;40.80
62363;DHT22;48396;48.426;1.500;2022-09-17T18:00:59;23.20;41.00
62363;DHT22;48396;48.426;1.500;2022-09-17T18:03:24;23.00;41.10
62363;DHT22;48396;48.426;1.500;2022-09-17T18:08:42;22.60;41.50
62363;DHT22;48396;48.426;1.500;2022-09-17T18:11:08;22.40;41.70
62363;DHT22;48396;48.426;1.500;2022-09-17T18:13:35;22.30;41.90
62363;DHT22;48396;48.426;1.500;2022-09-17T18:16:02;22.10;42.00
62363;DHT22;48396;48.426;1.500;2022-09-17T18:18:32;22.00;42.20
62363;DHT22;48396;48.426;1.500;2022-09-17T18:21:02;21.90;42.40
62363;DHT22;48396;48.426;1.500;2022-09-17T18:23:31;21.80;42.40
62363;DHT22;48396;48.426;1.500;2022-09-17T18:25:58;21.70;42.70
62363;DHT22;48396;48.426;1.500;2022-09-17T18:28:25;21.60;42.60
62363;DHT22;48396;48.426;1.500;2022-09-17T18:30:51;21.60;42.80
62363;DHT22;48396;48.426;1.500;2022-09-17T18:33:21;21.40;43.00
62363;DHT22;48396;48.426;1.500;2022-09-17T18:35:48;21.40;43.00
62363;DHT22;48396;48.426;1.500;2022-09-17T18:38:14;21.30;43.30
62363;DHT22;48396;48.426;1.500;2022-09-17T18:40:39;21.20;43.30
62363;DHT22;48396;48.426;1.500;2022-09-17T18:43:05;21.20;43.50
62363;DHT22;48396;48.426;1.500;2022-09-17T18:45:31;21.10;43.70
62363;DHT22;48396;48.426;1.500;2022-09-17T18:47:57;21.00;43.70
62363;DHT22;48396;48.426;1.500;2022-09-17T18:50:22;20.90;43.80
62363;DHT22;48396;48.426;1.500;2022-09-17T18:52:48;20.90;43.90